Ana Sayfa
METAR-TAF:

METAR-TAF

Havaalanları :

Franklin County Airport

Louisburg, Kuzey Carolina, Amerika Birleşik Devletleri

Enlem: 36-01-24N, Boylam: 078-19-49W, yükseklik: 113 m

Güncel hava durumu gözlemi

Rapor saat 05:55 UTC de 32 dakika önce yapıldı.
Rüzgar kuzeydan 4 kt
Sıcaklık -6°C
Nem 93%
Basınç 1029 hPa
Görüş mesafesi: 1.6 km
400 ft yükseklikte çok bulutlu
hafif kar

METAR: KLHZ 220555Z AUTO 35004KT 1SM -SN OVC004 M06/M07 A3038 RMK AO2 P0002

Saat: 01:27 (06:27 UTC)


TAF: eksik

4.000'den fazla havaalanı için hava durumu gözlemleri ve tahminleri (METAR ve TAF raporları).

Kullanılabilir istasyonlar harita üzerinde sarı ve kırmızı noktalarla gösterilir.

İstasyonun adını görmek için fareyi noktanın üzerinde gezdirin.

Sonrasında hava gözlem ve tahminlerini görmek için tıklayın.

Haritayı değiştirmek için: yaklaştırmak için siyah artı işaretli yeşil düğmeye ve uzaklaştırmak için de eksi işaretli düğmeye hızla tıklayın; bitişik haritalar için yeşil okları kullanın.


METAR-TAF: